ASA66 PANC-PACV
Flight info
| Callsign | ASA66 |
|---|---|
| Flight time | 0h 44m |
| Altitude | 19000 |
| Route | NOEND JOH |
| Aircraft | B737/M-SDE2E3FGHIRWXY/LB1 |
Departure
| Time | 2026-04-25 02:07 |
|---|---|
| Airport | Ted Stevens Anchorage International Airport (PANC) |
Arrival
| Time | 2026-04-25 02:51 |
|---|---|
| Airport | Merle K (Mudhole) Smith Airport (PACV) |
| Time | Latitude | Longitude | Altitude | Speed | Heading |
|---|---|---|---|---|---|
| 2026-04-25 01:46 | 61.17469 | -149.98414 | 108 ft | 0 kts | 82° |
| 2026-04-25 01:58 | 61.17468 | -149.98426 | 108 ft | 2 kts | 82° |
| 2026-04-25 01:58 | 61.17465 | -149.98467 | 106 ft | 3 kts | 82° |
| 2026-04-25 01:59 | 61.17462 | -149.98508 | 107 ft | 3 kts | 82° |
| 2026-04-25 01:59 | 61.17459 | -149.98548 | 108 ft | 3 kts | 86° |
| 2026-04-25 01:59 | 61.17461 | -149.98577 | 107 ft | 3 kts | 145° |
| 2026-04-25 01:59 | 61.17475 | -149.98592 | 104 ft | 1 kts | 160° |
| 2026-04-25 02:00 | 61.17489 | -149.98603 | 107 ft | 1 kts | 160° |
| 2026-04-25 02:00 | 61.17492 | -149.98605 | 105 ft | 0 kts | 160° |
| 2026-04-25 02:02 | 61.17470 | -149.98588 | 106 ft | 12 kts | 159° |
| 2026-04-25 02:03 | 61.17377 | -149.98616 | 107 ft | 16 kts | 212° |
| 2026-04-25 02:03 | 61.17280 | -149.98742 | 108 ft | 17 kts | 214° |
| 2026-04-25 02:03 | 61.17263 | -149.98738 | 110 ft | 4 kts | 159° |
| 2026-04-25 02:03 | 61.17202 | -149.98733 | 110 ft | 12 kts | 179° |
| 2026-04-25 02:04 | 61.17121 | -149.98695 | 112 ft | 12 kts | 162° |
| 2026-04-25 02:04 | 61.17113 | -149.98698 | 113 ft | 1 kts | 207° |
| 2026-04-25 02:04 | 61.17114 | -149.98813 | 114 ft | 26 kts | 270° |
| 2026-04-25 02:04 | 61.17125 | -149.99259 | 118 ft | 24 kts | 271° |
| 2026-04-25 02:05 | 61.17125 | -149.99551 | 124 ft | 19 kts | 271° |
| 2026-04-25 02:05 | 61.17125 | -149.99639 | 125 ft | 0 kts | 266° |
| 2026-04-25 02:05 | 61.17123 | -149.99714 | 127 ft | 15 kts | 269° |
| 2026-04-25 02:06 | 61.17184 | -149.99896 | 116 ft | 12 kts | 342° |
| 2026-04-25 02:06 | 61.17200 | -149.99905 | 125 ft | 0 kts | 345° |
| 2026-04-25 02:06 | 61.17354 | -149.99992 | 133 ft | 66 kts | 344° |
| 2026-04-25 02:06 | 61.18087 | -150.00412 | 125 ft | 148 kts | 344° |
| 2026-04-25 02:07 | 61.19238 | -150.01016 | 582 ft | 186 kts | 344° |
| 2026-04-25 02:07 | 61.20510 | -150.01932 | 1513 ft | 201 kts | 330° |
| 2026-04-25 02:07 | 61.21737 | -150.03691 | 2046 ft | 228 kts | 326° |
| 2026-04-25 02:07 | 61.23069 | -150.05646 | 2778 ft | 241 kts | 326° |
| 2026-04-25 02:08 | 61.24465 | -150.07661 | 3724 ft | 247 kts | 326° |
| 2026-04-25 02:08 | 61.25909 | -150.09724 | 4723 ft | 257 kts | 327° |
| 2026-04-25 02:08 | 61.27421 | -150.11828 | 5690 ft | 267 kts | 333° |
| 2026-04-25 02:08 | 61.29211 | -150.12835 | 6565 ft | 270 kts | 8° |
| 2026-04-25 02:09 | 61.30947 | -150.11735 | 7489 ft | 258 kts | 40° |
| 2026-04-25 02:09 | 61.32310 | -150.09325 | 8450 ft | 259 kts | 51° |
| 2026-04-25 02:09 | 61.33567 | -150.06556 | 9314 ft | 268 kts | 52° |
| 2026-04-25 02:09 | 61.34750 | -150.03501 | 10187 ft | 273 kts | 67° |
| 2026-04-25 02:10 | 61.35207 | -149.99726 | 10990 ft | 268 kts | 96° |
| 2026-04-25 02:10 | 61.34788 | -149.95914 | 11502 ft | 281 kts | 122° |
| 2026-04-25 02:10 | 61.33586 | -149.92620 | 11752 ft | 304 kts | 136° |
| 2026-04-25 02:10 | 61.32085 | -149.89340 | 11982 ft | 331 kts | 137° |
| 2026-04-25 02:11 | 61.30421 | -149.85726 | 12611 ft | 345 kts | 136° |
| 2026-04-25 02:11 | 61.28741 | -149.82030 | 13532 ft | 350 kts | 136° |
| 2026-04-25 02:11 | 61.27141 | -149.78251 | 14391 ft | 356 kts | 128° |
| 2026-04-25 02:11 | 61.26089 | -149.73544 | 15302 ft | 365 kts | 111° |
| 2026-04-25 02:12 | 61.25446 | -149.68423 | 16276 ft | 367 kts | 109° |
| 2026-04-25 02:12 | 61.24829 | -149.63268 | 17148 ft | 370 kts | 110° |
| 2026-04-25 02:12 | 61.24245 | -149.58033 | 17944 ft | 374 kts | 108° |
| 2026-04-25 02:12 | 61.23733 | -149.52704 | 18658 ft | 380 kts | 108° |
| 2026-04-25 02:13 | 61.23222 | -149.47323 | 19007 ft | 380 kts | 108° |
| 2026-04-25 02:13 | 61.22687 | -149.41886 | 19123 ft | 391 kts | 109° |
| 2026-04-25 02:13 | 61.22125 | -149.36290 | 19114 ft | 401 kts | 108° |
| 2026-04-25 02:13 | 61.21571 | -149.30589 | 19107 ft | 403 kts | 107° |
| 2026-04-25 02:14 | 61.21027 | -149.24890 | 19115 ft | 403 kts | 107° |
| 2026-04-25 02:14 | 61.20482 | -149.19163 | 19136 ft | 406 kts | 107° |
| 2026-04-25 02:14 | 61.19929 | -149.13406 | 19135 ft | 407 kts | 107° |
| 2026-04-25 02:14 | 61.19373 | -149.07644 | 19104 ft | 407 kts | 107° |
| 2026-04-25 02:15 | 61.18818 | -149.01922 | 19131 ft | 406 kts | 107° |
| 2026-04-25 02:15 | 61.18260 | -148.96190 | 19137 ft | 405 kts | 108° |
| 2026-04-25 02:15 | 61.17697 | -148.90473 | 19140 ft | 403 kts | 108° |
| 2026-04-25 02:15 | 61.17136 | -148.84804 | 19132 ft | 402 kts | 108° |
| 2026-04-25 02:16 | 61.16572 | -148.79131 | 19135 ft | 400 kts | 108° |
| 2026-04-25 02:16 | 61.16012 | -148.73527 | 19167 ft | 399 kts | 108° |
| 2026-04-25 02:16 | 61.15446 | -148.67882 | 19189 ft | 399 kts | 108° |
| 2026-04-25 02:16 | 61.14879 | -148.62259 | 19145 ft | 402 kts | 109° |
| 2026-04-25 02:17 | 61.14305 | -148.56579 | 19161 ft | 403 kts | 109° |
| 2026-04-25 02:17 | 61.13727 | -148.50897 | 19172 ft | 404 kts | 109° |
| 2026-04-25 02:17 | 61.12895 | -148.45426 | 19185 ft | 392 kts | 124° |
| 2026-04-25 02:17 | 61.11428 | -148.40768 | 19208 ft | 386 kts | 131° |
| 2026-04-25 02:18 | 61.09871 | -148.36247 | 19198 ft | 386 kts | 131° |
| 2026-04-25 02:18 | 61.08312 | -148.31722 | 19208 ft | 387 kts | 131° |
| 2026-04-25 02:18 | 61.06753 | -148.27180 | 19218 ft | 387 kts | 131° |
| 2026-04-25 02:18 | 61.05198 | -148.22637 | 19212 ft | 386 kts | 131° |
| 2026-04-25 02:19 | 61.03656 | -148.18115 | 19239 ft | 384 kts | 131° |
| 2026-04-25 02:19 | 61.02151 | -148.13698 | 19227 ft | 385 kts | 131° |
| 2026-04-25 02:19 | 61.00609 | -148.09177 | 19225 ft | 385 kts | 131° |
| 2026-04-25 02:19 | 60.99060 | -148.04635 | 19214 ft | 384 kts | 131° |
| 2026-04-25 02:20 | 60.97539 | -148.00185 | 19237 ft | 384 kts | 131° |
| 2026-04-25 02:20 | 60.95990 | -147.95662 | 19247 ft | 386 kts | 131° |
| 2026-04-25 02:20 | 60.94426 | -147.91104 | 19230 ft | 387 kts | 131° |
| 2026-04-25 02:20 | 60.92885 | -147.86620 | 19256 ft | 388 kts | 131° |
| 2026-04-25 02:21 | 60.91312 | -147.82048 | 19258 ft | 389 kts | 131° |
| 2026-04-25 02:21 | 60.89749 | -147.77515 | 19234 ft | 388 kts | 131° |
| 2026-04-25 02:21 | 60.88195 | -147.73017 | 19231 ft | 388 kts | 131° |
| 2026-04-25 02:21 | 60.86939 | -147.69387 | 19242 ft | 388 kts | 131° |
| 2026-04-25 02:22 | 60.85378 | -147.64885 | 19239 ft | 387 kts | 131° |
| 2026-04-25 02:22 | 60.83807 | -147.60368 | 19224 ft | 389 kts | 131° |
| 2026-04-25 02:22 | 60.82243 | -147.55877 | 19258 ft | 387 kts | 131° |
| 2026-04-25 02:22 | 60.80663 | -147.51345 | 19196 ft | 387 kts | 131° |
| 2026-04-25 02:23 | 60.79105 | -147.46888 | 19228 ft | 387 kts | 131° |
| 2026-04-25 02:23 | 60.77533 | -147.42399 | 19237 ft | 388 kts | 131° |
| 2026-04-25 02:23 | 60.75941 | -147.37866 | 19249 ft | 389 kts | 131° |
| 2026-04-25 02:23 | 60.74355 | -147.33355 | 19243 ft | 389 kts | 131° |
| 2026-04-25 02:24 | 60.72772 | -147.28861 | 19238 ft | 390 kts | 131° |
| 2026-04-25 02:24 | 60.71184 | -147.24362 | 19240 ft | 391 kts | 132° |
| 2026-04-25 02:24 | 60.69593 | -147.19862 | 19250 ft | 391 kts | 132° |
| 2026-04-25 02:24 | 60.68001 | -147.15366 | 19247 ft | 390 kts | 132° |
| 2026-04-25 02:25 | 60.66410 | -147.10884 | 19240 ft | 390 kts | 132° |
| 2026-04-25 02:25 | 60.64817 | -147.06404 | 19240 ft | 390 kts | 132° |
| 2026-04-25 02:25 | 60.63223 | -147.01932 | 19230 ft | 389 kts | 132° |
| 2026-04-25 02:25 | 60.61632 | -146.97474 | 19197 ft | 389 kts | 131° |
| 2026-04-25 02:26 | 60.60039 | -146.93022 | 19222 ft | 389 kts | 131° |
| 2026-04-25 02:26 | 60.58446 | -146.88576 | 19224 ft | 390 kts | 131° |
| 2026-04-25 02:26 | 60.56845 | -146.84119 | 19226 ft | 390 kts | 131° |
| 2026-04-25 02:26 | 60.55243 | -146.79663 | 19229 ft | 390 kts | 131° |
| 2026-04-25 02:27 | 60.53639 | -146.75207 | 19229 ft | 391 kts | 131° |
| 2026-04-25 02:27 | 60.52033 | -146.70759 | 19223 ft | 391 kts | 131° |
| 2026-04-25 02:27 | 60.50424 | -146.66312 | 19227 ft | 391 kts | 131° |
| 2026-04-25 02:27 | 60.48930 | -146.61674 | 19219 ft | 396 kts | 124° |
| 2026-04-25 02:28 | 60.47789 | -146.56545 | 19236 ft | 402 kts | 116° |
| 2026-04-25 02:28 | 60.47040 | -146.51035 | 19238 ft | 408 kts | 109° |
| 2026-04-25 02:28 | 60.46434 | -146.45426 | 19232 ft | 408 kts | 108° |
| 2026-04-25 02:28 | 60.45829 | -146.39807 | 19201 ft | 408 kts | 108° |
| 2026-04-25 02:29 | 60.45220 | -146.34203 | 19239 ft | 406 kts | 108° |
| 2026-04-25 02:29 | 60.44618 | -146.28708 | 19068 ft | 395 kts | 109° |
| 2026-04-25 02:29 | 60.44016 | -146.23292 | 18542 ft | 393 kts | 109° |
| 2026-04-25 02:29 | 60.43418 | -146.17959 | 17865 ft | 381 kts | 109° |
| 2026-04-25 02:30 | 60.42842 | -146.12835 | 17239 ft | 366 kts | 109° |
| 2026-04-25 02:30 | 60.42289 | -146.07949 | 16569 ft | 357 kts | 109° |
| 2026-04-25 02:30 | 60.41734 | -146.03109 | 15822 ft | 354 kts | 109° |
| 2026-04-25 02:30 | 60.41177 | -145.98271 | 15202 ft | 348 kts | 109° |
| 2026-04-25 02:31 | 60.40630 | -145.93546 | 14612 ft | 347 kts | 109° |
| 2026-04-25 02:31 | 60.40079 | -145.88805 | 14010 ft | 347 kts | 109° |
| 2026-04-25 02:31 | 60.39526 | -145.84048 | 13326 ft | 346 kts | 109° |
| 2026-04-25 02:31 | 60.38974 | -145.79308 | 12723 ft | 344 kts | 109° |
| 2026-04-25 02:32 | 60.38429 | -145.74632 | 12143 ft | 341 kts | 109° |
| 2026-04-25 02:32 | 60.37890 | -145.70026 | 11559 ft | 337 kts | 109° |
| 2026-04-25 02:32 | 60.37345 | -145.65382 | 10972 ft | 334 kts | 109° |
| 2026-04-25 02:32 | 60.36821 | -145.60925 | 10575 ft | 327 kts | 109° |
| 2026-04-25 02:33 | 60.36307 | -145.56546 | 10454 ft | 311 kts | 109° |
| 2026-04-25 02:33 | 60.35818 | -145.52401 | 10321 ft | 298 kts | 110° |
| 2026-04-25 02:33 | 60.35344 | -145.48411 | 10188 ft | 286 kts | 110° |
| 2026-04-25 02:33 | 60.34888 | -145.44576 | 10063 ft | 275 kts | 110° |
| 2026-04-25 02:34 | 60.34449 | -145.40899 | 9884 ft | 266 kts | 110° |
| 2026-04-25 02:34 | 60.34013 | -145.37284 | 9573 ft | 263 kts | 110° |
| 2026-04-25 02:34 | 60.33580 | -145.33700 | 9220 ft | 261 kts | 110° |
| 2026-04-25 02:34 | 60.33184 | -145.30156 | 8901 ft | 261 kts | 103° |
| 2026-04-25 02:35 | 60.33274 | -145.26439 | 8621 ft | 264 kts | 89° |
| 2026-04-25 02:35 | 60.33535 | -145.22784 | 8269 ft | 263 kts | 88° |
| 2026-04-25 02:35 | 60.33800 | -145.19153 | 7945 ft | 261 kts | 88° |
| 2026-04-25 02:35 | 60.34056 | -145.15570 | 7620 ft | 259 kts | 88° |
| 2026-04-25 02:36 | 60.34309 | -145.11937 | 7292 ft | 257 kts | 88° |
| 2026-04-25 02:36 | 60.34553 | -145.08368 | 6963 ft | 256 kts | 89° |
| 2026-04-25 02:36 | 60.34788 | -145.04882 | 6648 ft | 254 kts | 88° |
| 2026-04-25 02:36 | 60.35023 | -145.01386 | 6384 ft | 243 kts | 88° |
| 2026-04-25 02:37 | 60.35244 | -144.98112 | 6270 ft | 227 kts | 88° |
| 2026-04-25 02:37 | 60.35444 | -144.95075 | 6127 ft | 212 kts | 88° |
| 2026-04-25 02:37 | 60.35634 | -144.92175 | 6023 ft | 202 kts | 88° |
| 2026-04-25 02:37 | 60.35781 | -144.89925 | 6012 ft | 197 kts | 88° |
| 2026-04-25 02:38 | 60.35928 | -144.88114 | 6002 ft | 197 kts | 82° |
| 2026-04-25 02:38 | 60.36428 | -144.84550 | 6006 ft | 199 kts | 79° |
| 2026-04-25 02:38 | 60.36699 | -144.82727 | 6017 ft | 201 kts | 79° |
| 2026-04-25 02:38 | 60.37103 | -144.80008 | 6015 ft | 202 kts | 79° |
| 2026-04-25 02:39 | 60.37499 | -144.77325 | 6021 ft | 201 kts | 80° |
| 2026-04-25 02:39 | 60.37897 | -144.74620 | 6012 ft | 201 kts | 79° |
| 2026-04-25 02:39 | 60.38301 | -144.71866 | 6009 ft | 200 kts | 80° |
| 2026-04-25 02:39 | 60.38646 | -144.69175 | 5975 ft | 194 kts | 93° |
| 2026-04-25 02:40 | 60.38439 | -144.66655 | 6029 ft | 182 kts | 114° |
| 2026-04-25 02:40 | 60.37790 | -144.64419 | 6017 ft | 181 kts | 133° |
| 2026-04-25 02:40 | 60.36844 | -144.62990 | 6008 ft | 163 kts | 152° |
| 2026-04-25 02:40 | 60.35785 | -144.62422 | 5978 ft | 155 kts | 169° |
| 2026-04-25 02:41 | 60.34698 | -144.62648 | 6017 ft | 162 kts | 187° |
| 2026-04-25 02:41 | 60.33665 | -144.63711 | 6002 ft | 172 kts | 210° |
| 2026-04-25 02:41 | 60.32889 | -144.65570 | 5972 ft | 179 kts | 234° |
| 2026-04-25 02:41 | 60.32501 | -144.68001 | 6012 ft | 187 kts | 256° |
| 2026-04-25 02:42 | 60.32555 | -144.70658 | 6003 ft | 199 kts | 283° |
| 2026-04-25 02:42 | 60.33029 | -144.73303 | 6024 ft | 202 kts | 288° |
| 2026-04-25 02:42 | 60.33532 | -144.75953 | 6011 ft | 200 kts | 288° |
| 2026-04-25 02:42 | 60.34028 | -144.78564 | 6004 ft | 199 kts | 288° |
| 2026-04-25 02:43 | 60.34524 | -144.81181 | 6000 ft | 198 kts | 288° |
| 2026-04-25 02:43 | 60.35015 | -144.83770 | 5984 ft | 197 kts | 290° |
| 2026-04-25 02:43 | 60.35623 | -144.86240 | 6010 ft | 196 kts | 296° |
| 2026-04-25 02:43 | 60.36241 | -144.88698 | 5959 ft | 200 kts | 294° |
| 2026-04-25 02:44 | 60.36848 | -144.91298 | 5655 ft | 206 kts | 292° |
| 2026-04-25 02:44 | 60.37432 | -144.93912 | 5390 ft | 201 kts | 292° |
| 2026-04-25 02:44 | 60.37987 | -144.96439 | 5147 ft | 198 kts | 291° |
| 2026-04-25 02:44 | 60.38536 | -144.98956 | 4878 ft | 194 kts | 291° |
| 2026-04-25 02:45 | 60.39075 | -145.01432 | 4619 ft | 190 kts | 292° |
| 2026-04-25 02:45 | 60.39606 | -145.03874 | 4363 ft | 186 kts | 292° |
| 2026-04-25 02:45 | 60.40126 | -145.06259 | 4118 ft | 181 kts | 292° |
| 2026-04-25 02:45 | 60.40621 | -145.08528 | 3908 ft | 178 kts | 292° |
| 2026-04-25 02:46 | 60.41122 | -145.10827 | 3682 ft | 177 kts | 292° |
| 2026-04-25 02:46 | 60.41619 | -145.13100 | 3618 ft | 174 kts | 292° |
| 2026-04-25 02:46 | 60.42118 | -145.15386 | 3409 ft | 180 kts | 292° |
| 2026-04-25 02:46 | 60.42611 | -145.17634 | 3193 ft | 170 kts | 292° |
| 2026-04-25 02:47 | 60.43066 | -145.19712 | 2982 ft | 152 kts | 292° |
| 2026-04-25 02:47 | 60.43477 | -145.21584 | 2744 ft | 140 kts | 292° |
| 2026-04-25 02:47 | 60.43868 | -145.23368 | 2571 ft | 141 kts | 292° |
| 2026-04-25 02:47 | 60.44265 | -145.25181 | 2352 ft | 141 kts | 292° |
| 2026-04-25 02:48 | 60.44669 | -145.27022 | 2112 ft | 142 kts | 293° |
| 2026-04-25 02:48 | 60.45068 | -145.28835 | 1901 ft | 140 kts | 294° |
| 2026-04-25 02:48 | 60.45464 | -145.30634 | 1682 ft | 142 kts | 295° |
| 2026-04-25 02:48 | 60.45851 | -145.32389 | 1502 ft | 142 kts | 294° |
| 2026-04-25 02:49 | 60.46140 | -145.33706 | 1358 ft | 140 kts | 295° |
| 2026-04-25 02:49 | 60.46539 | -145.35515 | 1180 ft | 141 kts | 295° |
| 2026-04-25 02:49 | 60.46939 | -145.37329 | 1008 ft | 141 kts | 294° |
| 2026-04-25 02:49 | 60.47332 | -145.39113 | 810 ft | 140 kts | 295° |
| 2026-04-25 02:50 | 60.47733 | -145.40927 | 647 ft | 139 kts | 294° |
| 2026-04-25 02:50 | 60.48101 | -145.42678 | 428 ft | 138 kts | 294° |
| 2026-04-25 02:50 | 60.48497 | -145.44466 | 255 ft | 140 kts | 296° |
| 2026-04-25 02:50 | 60.48910 | -145.46276 | 114 ft | 143 kts | 296° |
| 2026-04-25 02:51 | 60.49257 | -145.47828 | 90 ft | 75 kts | 296° |
| 2026-04-25 02:51 | 60.49350 | -145.48226 | 88 ft | 0 kts | 296° |
| 2026-04-25 02:51 | 60.49370 | -145.48278 | 91 ft | 1 kts | 320° |
| 2026-04-25 02:52 | 60.49372 | -145.48313 | 87 ft | 1 kts | 196° |
| 2026-04-25 02:52 | 60.49365 | -145.48279 | 87 ft | 7 kts | 114° |
| 2026-04-25 02:52 | 60.49327 | -145.48125 | 89 ft | 13 kts | 113° |
| 2026-04-25 02:52 | 60.49298 | -145.47982 | 90 ft | 9 kts | 115° |
| 2026-04-25 02:53 | 60.49270 | -145.47859 | 91 ft | 10 kts | 115° |
| 2026-04-25 02:53 | 60.49242 | -145.47737 | 93 ft | 8 kts | 114° |
| 2026-04-25 02:53 | 60.49230 | -145.47625 | 91 ft | 8 kts | 86° |
| 2026-04-25 02:53 | 60.49253 | -145.47542 | 94 ft | 5 kts | 41° |
| 2026-04-25 02:54 | 60.49268 | -145.47524 | 96 ft | 2 kts | 30° |
| 2026-04-25 02:54 | 60.49296 | -145.47493 | 93 ft | 7 kts | 28° |
| 2026-04-25 02:54 | 60.49338 | -145.47447 | 93 ft | 6 kts | 28° |
| 2026-04-25 02:54 | 60.49369 | -145.47423 | 93 ft | 3 kts | 16° |
| 2026-04-25 02:55 | 60.49375 | -145.47419 | 94 ft | 3 kts | 17° |
| 2026-04-25 02:55 | 60.49419 | -145.47341 | 94 ft | 9 kts | 71° |
| 2026-04-25 02:55 | 60.49418 | -145.47280 | 94 ft | 0 kts | 112° |